sensor_id;sensor_type;location;lat;lon;timestamp;temperature;humidity
36790;DHT22;22740;52.182;8.780;2022-11-12T00:04:18;7.90;99.90
36790;DHT22;22740;52.182;8.780;2022-11-12T00:10:20;8.00;99.90
36790;DHT22;22740;52.182;8.780;2022-11-12T00:16:22;8.10;99.90
36790;DHT22;22740;52.182;8.780;2022-11-12T00:22:23;8.20;99.90
36790;DHT22;22740;52.182;8.780;2022-11-12T00:28:25;8.20;99.90
36790;DHT22;22740;52.182;8.780;2022-11-12T00:34:27;8.20;99.90
36790;DHT22;22740;52.182;8.780;2022-11-12T00:40:29;8.00;99.90
36790;DHT22;22740;52.182;8.780;2022-11-12T00:46:31;7.70;99.90
36790;DHT22;22740;52.182;8.780;2022-11-12T00:52:32;7.20;99.90
36790;DHT22;22740;52.182;8.780;2022-11-12T00:58:34;6.90;99.90
36790;DHT22;22740;52.182;8.780;2022-11-12T01:04:36;7.20;99.90
36790;DHT22;22740;52.182;8.780;2022-11-12T01:10:38;7.20;99.90
36790;DHT22;22740;52.182;8.780;2022-11-12T01:16:39;7.10;99.90
36790;DHT22;22740;52.182;8.780;2022-11-12T01:22:43;7.10;99.90
36790;DHT22;22740;52.182;8.780;2022-11-12T01:28:45;7.30;99.90
36790;DHT22;22740;52.182;8.780;2022-11-12T01:34:46;7.00;99.90
36790;DHT22;22740;52.182;8.780;2022-11-12T01:40:48;7.10;99.90
36790;DHT22;22740;52.182;8.780;2022-11-12T01:53:22;7.00;99.90
36790;DHT22;22740;52.182;8.780;2022-11-12T01:59:27;7.10;99.90
36790;DHT22;22740;52.182;8.780;2022-11-12T02:05:30;7.00;99.90
36790;DHT22;22740;52.182;8.780;2022-11-12T02:11:32;7.10;99.90
36790;DHT22;22740;52.182;8.780;2022-11-12T02:17:33;7.00;99.90
36790;DHT22;22740;52.182;8.780;2022-11-12T02:23:35;7.00;99.90
36790;DHT22;22740;52.182;8.780;2022-11-12T02:29:37;7.20;99.90
36790;DHT22;22740;52.182;8.780;2022-11-12T02:35:46;7.10;99.90
36790;DHT22;22740;52.182;8.780;2022-11-12T02:41:48;6.90;99.90
36790;DHT22;22740;52.182;8.780;2022-11-12T02:47:50;6.50;99.90
36790;DHT22;22740;52.182;8.780;2022-11-12T02:53:51;6.50;99.90
36790;DHT22;22740;52.182;8.780;2022-11-12T02:59:53;6.50;99.90
36790;DHT22;22740;52.182;8.780;2022-11-12T03:05:56;6.40;99.90
36790;DHT22;22740;52.182;8.780;2022-11-12T03:11:58;6.50;99.90
36790;DHT22;22740;52.182;8.780;2022-11-12T03:18:00;6.50;99.90
36790;DHT22;22740;52.182;8.780;2022-11-12T03:24:01;6.60;99.90
36790;DHT22;22740;52.182;8.780;2022-11-12T03:30:03;6.60;99.90
36790;DHT22;22740;52.182;8.780;2022-11-12T03:36:05;6.60;99.90
36790;DHT22;22740;52.182;8.780;2022-11-12T03:42:07;6.50;99.90
36790;DHT22;22740;52.182;8.780;2022-11-12T03:48:09;6.10;99.90
36790;DHT22;22740;52.182;8.780;2022-11-12T03:54:11;5.90;99.90
36790;DHT22;22740;52.182;8.780;2022-11-12T04:00:13;5.80;99.90
36790;DHT22;22740;52.182;8.780;2022-11-12T04:06:14;6.00;99.90
36790;DHT22;22740;52.182;8.780;2022-11-12T04:12:35;6.10;99.90
36790;DHT22;22740;52.182;8.780;2022-11-12T04:18:56;6.10;99.90
36790;DHT22;22740;52.182;8.780;2022-11-12T04:25:16;6.10;99.90
36790;DHT22;22740;52.182;8.780;2022-11-12T04:31:36;5.90;99.90
36790;DHT22;22740;52.182;8.780;2022-11-12T04:37:38;5.90;99.90
36790;DHT22;22740;52.182;8.780;2022-11-12T04:43:46;5.90;99.90
36790;DHT22;22740;52.182;8.780;2022-11-12T04:50:08;5.60;99.90
36790;DHT22;22740;52.182;8.780;2022-11-12T04:56:13;5.50;99.90
36790;DHT22;22740;52.182;8.780;2022-11-12T05:02:15;5.30;99.90
36790;DHT22;22740;52.182;8.780;2022-11-12T05:08:17;5.60;99.90
36790;DHT22;22740;52.182;8.780;2022-11-12T05:14:18;5.70;99.90
36790;DHT22;22740;52.182;8.780;2022-11-12T05:20:20;5.80;99.90
36790;DHT22;22740;52.182;8.780;2022-11-12T05:26:22;5.90;99.90
36790;DHT22;22740;52.182;8.780;2022-11-12T05:32:23;6.00;99.90
36790;DHT22;22740;52.182;8.780;2022-11-12T05:38:25;6.00;99.90
36790;DHT22;22740;52.182;8.780;2022-11-12T05:44:27;5.70;99.90
36790;DHT22;22740;52.182;8.780;2022-11-12T05:50:29;5.30;99.90
36790;DHT22;22740;52.182;8.780;2022-11-12T05:56:51;5.20;99.90
36790;DHT22;22740;52.182;8.780;2022-11-12T06:02:55;5.10;99.90
36790;DHT22;22740;52.182;8.780;2022-11-12T06:08:57;5.00;99.90
36790;DHT22;22740;52.182;8.780;2022-11-12T06:14:59;5.00;99.90
36790;DHT22;22740;52.182;8.780;2022-11-12T06:21:05;5.30;99.90
36790;DHT22;22740;52.182;8.780;2022-11-12T06:27:23;5.20;99.90
36790;DHT22;22740;52.182;8.780;2022-11-12T06:33:25;5.10;99.90
36790;DHT22;22740;52.182;8.780;2022-11-12T06:39:27;5.20;99.90
36790;DHT22;22740;52.182;8.780;2022-11-12T06:45:28;5.50;99.90
36790;DHT22;22740;52.182;8.780;2022-11-12T06:51:30;5.50;99.90
36790;DHT22;22740;52.182;8.780;2022-11-12T06:57:32;5.30;99.90
36790;DHT22;22740;52.182;8.780;2022-11-12T07:03:33;5.20;99.90
36790;DHT22;22740;52.182;8.780;2022-11-12T07:09:35;5.10;99.90
36790;DHT22;22740;52.182;8.780;2022-11-12T07:15:37;5.00;99.90
36790;DHT22;22740;52.182;8.780;2022-11-12T07:21:39;5.30;99.90
36790;DHT22;22740;52.182;8.780;2022-11-12T07:27:41;5.40;99.90
36790;DHT22;22740;52.182;8.780;2022-11-12T07:33:43;5.60;99.90
36790;DHT22;22740;52.182;8.780;2022-11-12T07:39:45;5.70;99.90
36790;DHT22;22740;52.182;8.780;2022-11-12T07:45:46;5.70;99.90
36790;DHT22;22740;52.182;8.780;2022-11-12T07:51:48;5.90;99.90
36790;DHT22;22740;52.182;8.780;2022-11-12T07:57:50;5.80;99.90
36790;DHT22;22740;52.182;8.780;2022-11-12T08:03:53;5.90;99.90
36790;DHT22;22740;52.182;8.780;2022-11-12T08:09:55;6.10;99.90
36790;DHT22;22740;52.182;8.780;2022-11-12T08:15:57;6.10;99.90
36790;DHT22;22740;52.182;8.780;2022-11-12T08:21:59;5.90;99.90
36790;DHT22;22740;52.182;8.780;2022-11-12T08:28:01;6.10;99.90
36790;DHT22;22740;52.182;8.780;2022-11-12T08:34:02;6.00;99.90
36790;DHT22;22740;52.182;8.780;2022-11-12T08:40:13;5.80;99.90
36790;DHT22;22740;52.182;8.780;2022-11-12T08:46:14;5.90;99.90
36790;DHT22;22740;52.182;8.780;2022-11-12T08:52:16;6.00;99.90
36790;DHT22;22740;52.182;8.780;2022-11-12T08:58:18;6.20;99.90
36790;DHT22;22740;52.182;8.780;2022-11-12T09:04:19;6.70;99.90
36790;DHT22;22740;52.182;8.780;2022-11-12T09:10:21;6.90;99.90
36790;DHT22;22740;52.182;8.780;2022-11-12T09:16:23;6.90;99.90
36790;DHT22;22740;52.182;8.780;2022-11-12T09:22:25;6.90;99.90
36790;DHT22;22740;52.182;8.780;2022-11-12T09:28:26;7.00;99.90
36790;DHT22;22740;52.182;8.780;2022-11-12T09:34:28;7.00;99.90
36790;DHT22;22740;52.182;8.780;2022-11-12T09:46:54;7.20;99.90
36790;DHT22;22740;52.182;8.780;2022-11-12T09:53:06;7.40;99.90
36790;DHT22;22740;52.182;8.780;2022-11-12T09:59:12;7.60;99.90
36790;DHT22;22740;52.182;8.780;2022-11-12T10:24:22;8.10;99.90
36790;DHT22;22740;52.182;8.780;2022-11-12T10:30:25;8.20;99.90
36790;DHT22;22740;52.182;8.780;2022-11-12T10:36:28;8.60;99.90
36790;DHT22;22740;52.182;8.780;2022-11-12T10:42:30;8.80;99.90
36790;DHT22;22740;52.182;8.780;2022-11-12T10:48:32;8.90;99.90
36790;DHT22;22740;52.182;8.780;2022-11-12T10:54:35;8.90;99.90
36790;DHT22;22740;52.182;8.780;2022-11-12T11:00:50;8.90;99.90
36790;DHT22;22740;52.182;8.780;2022-11-12T11:19:17;9.10;99.90
36790;DHT22;22740;52.182;8.780;2022-11-12T11:25:22;9.20;99.90
36790;DHT22;22740;52.182;8.780;2022-11-12T11:31:34;9.40;99.90
36790;DHT22;22740;52.182;8.780;2022-11-12T11:38:23;9.40;99.90
36790;DHT22;22740;52.182;8.780;2022-11-12T11:50:25;9.90;99.90
36790;DHT22;22740;52.182;8.780;2022-11-12T11:56:30;10.20;99.90
36790;DHT22;22740;52.182;8.780;2022-11-12T12:02:44;10.60;99.90
36790;DHT22;22740;52.182;8.780;2022-11-12T12:21:15;10.80;99.90
36790;DHT22;22740;52.182;8.780;2022-11-12T12:27:18;10.80;99.90
36790;DHT22;22740;52.182;8.780;2022-11-12T12:33:27;11.10;99.90
36790;DHT22;22740;52.182;8.780;2022-11-12T12:39:46;11.40;99.90
36790;DHT22;22740;52.182;8.780;2022-11-12T12:45:49;11.50;99.90
36790;DHT22;22740;52.182;8.780;2022-11-12T12:51:50;11.50;99.90
36790;DHT22;22740;52.182;8.780;2022-11-12T12:57:59;11.60;99.90
36790;DHT22;22740;52.182;8.780;2022-11-12T13:04:04;11.50;99.90
36790;DHT22;22740;52.182;8.780;2022-11-12T13:23:10;11.10;99.90
36790;DHT22;22740;52.182;8.780;2022-11-12T13:35:21;10.90;99.90
36790;DHT22;22740;52.182;8.780;2022-11-12T13:41:25;10.80;99.90
36790;DHT22;22740;52.182;8.780;2022-11-12T13:47:46;10.60;99.90
36790;DHT22;22740;52.182;8.780;2022-11-12T13:53:48;10.50;99.90
36790;DHT22;22740;52.182;8.780;2022-11-12T14:00:18;10.40;99.90
36790;DHT22;22740;52.182;8.780;2022-11-12T14:24:53;10.20;99.90
36790;DHT22;22740;52.182;8.780;2022-11-12T14:31:00;10.10;99.90
36790;DHT22;22740;52.182;8.780;2022-11-12T14:37:02;10.00;99.90
36790;DHT22;22740;52.182;8.780;2022-11-12T14:43:04;9.90;99.90
36790;DHT22;22740;52.182;8.780;2022-11-12T14:49:13;9.80;99.90
36790;DHT22;22740;52.182;8.780;2022-11-12T14:55:18;9.60;99.90
36790;DHT22;22740;52.182;8.780;2022-11-12T15:01:28;9.60;99.90
36790;DHT22;22740;52.182;8.780;2022-11-12T15:07:55;9.50;99.90
36790;DHT22;22740;52.182;8.780;2022-11-12T15:13:57;9.50;99.90
36790;DHT22;22740;52.182;8.780;2022-11-12T15:20:10;9.50;99.90
36790;DHT22;22740;52.182;8.780;2022-11-12T15:26:13;9.40;99.90
36790;DHT22;22740;52.182;8.780;2022-11-12T15:44:30;8.90;99.90
36790;DHT22;22740;52.182;8.780;2022-11-12T15:50:32;8.70;99.90
36790;DHT22;22740;52.182;8.780;2022-11-12T15:56:34;8.60;99.90
36790;DHT22;22740;52.182;8.780;2022-11-12T16:02:36;8.40;99.90
36790;DHT22;22740;52.182;8.780;2022-11-12T16:08:37;8.50;99.90
36790;DHT22;22740;52.182;8.780;2022-11-12T16:14:39;8.40;99.90
36790;DHT22;22740;52.182;8.780;2022-11-12T16:20:41;8.50;99.90
36790;DHT22;22740;52.182;8.780;2022-11-12T16:26:42;8.20;99.90
36790;DHT22;22740;52.182;8.780;2022-11-12T16:32:44;8.00;99.90
36790;DHT22;22740;52.182;8.780;2022-11-12T16:38:47;8.00;99.90
36790;DHT22;22740;52.182;8.780;2022-11-12T16:44:49;8.00;99.90
36790;DHT22;22740;52.182;8.780;2022-11-12T16:50:52;7.90;99.90
36790;DHT22;22740;52.182;8.780;2022-11-12T16:56:54;8.00;99.90
36790;DHT22;22740;52.182;8.780;2022-11-12T17:02:57;7.80;99.90
36790;DHT22;22740;52.182;8.780;2022-11-12T17:08:59;7.70;99.90
36790;DHT22;22740;52.182;8.780;2022-11-12T17:15:00;7.70;99.90
36790;DHT22;22740;52.182;8.780;2022-11-12T17:21:16;7.60;99.90
36790;DHT22;22740;52.182;8.780;2022-11-12T17:27:18;7.80;99.90
36790;DHT22;22740;52.182;8.780;2022-11-12T17:33:20;7.70;99.90
36790;DHT22;22740;52.182;8.780;2022-11-12T17:39:21;7.50;99.90
36790;DHT22;22740;52.182;8.780;2022-11-12T17:45:24;7.50;99.90
36790;DHT22;22740;52.182;8.780;2022-11-12T17:51:26;7.40;99.90
36790;DHT22;22740;52.182;8.780;2022-11-12T17:57:28;7.60;99.90
36790;DHT22;22740;52.182;8.780;2022-11-12T18:03:29;7.50;99.90
36790;DHT22;22740;52.182;8.780;2022-11-12T18:09:31;7.50;99.90
36790;DHT22;22740;52.182;8.780;2022-11-12T18:15:33;7.40;99.90
36790;DHT22;22740;52.182;8.780;2022-11-12T18:21:35;7.10;99.90
36790;DHT22;22740;52.182;8.780;2022-11-12T18:27:37;7.30;99.90
36790;DHT22;22740;52.182;8.780;2022-11-12T18:33:39;7.20;99.90
36790;DHT22;22740;52.182;8.780;2022-11-12T18:39:40;7.00;99.90
36790;DHT22;22740;52.182;8.780;2022-11-12T18:45:42;7.10;99.90
36790;DHT22;22740;52.182;8.780;2022-11-12T18:51:43;6.90;99.90
36790;DHT22;22740;52.182;8.780;2022-11-12T18:57:45;7.00;99.90
36790;DHT22;22740;52.182;8.780;2022-11-12T19:03:47;7.20;99.90
36790;DHT22;22740;52.182;8.780;2022-11-12T19:09:52;7.00;99.90
36790;DHT22;22740;52.182;8.780;2022-11-12T19:16:00;7.00;99.90
36790;DHT22;22740;52.182;8.780;2022-11-12T19:22:02;7.00;99.90
36790;DHT22;22740;52.182;8.780;2022-11-12T19:28:04;7.00;99.90
36790;DHT22;22740;52.182;8.780;2022-11-12T19:34:06;7.00;99.90
36790;DHT22;22740;52.182;8.780;2022-11-12T19:40:08;7.00;99.90
36790;DHT22;22740;52.182;8.780;2022-11-12T19:46:12;7.00;99.90
36790;DHT22;22740;52.182;8.780;2022-11-12T19:52:14;7.20;99.90
36790;DHT22;22740;52.182;8.780;2022-11-12T19:58:16;7.10;99.90
36790;DHT22;22740;52.182;8.780;2022-11-12T20:04:17;7.00;99.90
36790;DHT22;22740;52.182;8.780;2022-11-12T20:10:24;7.00;99.90
36790;DHT22;22740;52.182;8.780;2022-11-12T20:16:26;7.00;99.90
36790;DHT22;22740;52.182;8.780;2022-11-12T20:22:28;7.00;99.90
36790;DHT22;22740;52.182;8.780;2022-11-12T20:28:33;6.90;99.90
36790;DHT22;22740;52.182;8.780;2022-11-12T20:34:35;6.90;99.90
36790;DHT22;22740;52.182;8.780;2022-11-12T20:40:37;7.00;99.90
36790;DHT22;22740;52.182;8.780;2022-11-12T20:46:38;6.70;99.90
36790;DHT22;22740;52.182;8.780;2022-11-12T20:52:40;6.90;99.90
36790;DHT22;22740;52.182;8.780;2022-11-12T20:58:43;6.80;99.90
36790;DHT22;22740;52.182;8.780;2022-11-12T21:04:44;6.80;99.90
36790;DHT22;22740;52.182;8.780;2022-11-12T21:10:48;6.80;99.90
36790;DHT22;22740;52.182;8.780;2022-11-12T21:16:50;6.80;99.90
36790;DHT22;22740;52.182;8.780;2022-11-12T21:22:52;6.80;99.90
36790;DHT22;22740;52.182;8.780;2022-11-12T21:28:54;6.80;99.90
36790;DHT22;22740;52.182;8.780;2022-11-12T21:34:55;6.70;99.90
36790;DHT22;22740;52.182;8.780;2022-11-12T21:41:01;6.80;99.90
36790;DHT22;22740;52.182;8.780;2022-11-12T21:47:03;6.70;99.90
36790;DHT22;22740;52.182;8.780;2022-11-12T21:53:05;6.70;99.90
36790;DHT22;22740;52.182;8.780;2022-11-12T21:59:06;6.70;99.90
36790;DHT22;22740;52.182;8.780;2022-11-12T22:05:08;6.60;99.90
36790;DHT22;22740;52.182;8.780;2022-11-12T22:11:11;6.60;99.90
36790;DHT22;22740;52.182;8.780;2022-11-12T22:17:13;6.40;99.90
36790;DHT22;22740;52.182;8.780;2022-11-12T22:23:14;6.60;99.90
36790;DHT22;22740;52.182;8.780;2022-11-12T22:29:16;6.60;99.90
36790;DHT22;22740;52.182;8.780;2022-11-12T22:35:18;6.60;99.90
36790;DHT22;22740;52.182;8.780;2022-11-12T22:41:21;6.50;99.90
36790;DHT22;22740;52.182;8.780;2022-11-12T22:47:23;6.60;99.90
36790;DHT22;22740;52.182;8.780;2022-11-12T22:53:25;6.70;99.90
36790;DHT22;22740;52.182;8.780;2022-11-12T22:59:26;6.60;99.90
36790;DHT22;22740;52.182;8.780;2022-11-12T23:05:28;6.50;99.90
36790;DHT22;22740;52.182;8.780;2022-11-12T23:11:30;6.50;99.90
36790;DHT22;22740;52.182;8.780;2022-11-12T23:17:32;6.80;99.90
36790;DHT22;22740;52.182;8.780;2022-11-12T23:23:34;6.70;99.90
36790;DHT22;22740;52.182;8.780;2022-11-12T23:29:36;6.60;99.90
36790;DHT22;22740;52.182;8.780;2022-11-12T23:35:38;6.50;99.90
36790;DHT22;22740;52.182;8.780;2022-11-12T23:41:39;6.30;99.90
36790;DHT22;22740;52.182;8.780;2022-11-12T23:47:41;6.40;99.90
36790;DHT22;22740;52.182;8.780;2022-11-12T23:53:43;6.40;99.90
36790;DHT22;22740;52.182;8.780;2022-11-12T23:59:44;6.30;99.90
